Time;durP1;ratioP1;P1;durP2;ratioP2;P2;SDS_P1;SDS_P2;PMS_P1;PMS_P2;Temp;Humidity;BMP_temperature;BMP_pressure;BME280_temperature;BME280_humidity;BME280_pressure;Samples;Min_cycle;Max_cycle;Signal;HPM_P1;HPM_P2
2023/08/09 00:01:29;;;;;;;;;;;20.60;42.60;;;;;;1521799;76;800;-55
2023/08/09 00:03:31;;;;;;;;;;;20.70;42.80;;;;;;1525143;76;1506;-57
2023/08/09 00:05:33;;;;;;;;;;;20.60;42.60;;;;;;1525126;76;743;-57
2023/08/09 00:07:35;;;;;;;;;;;20.60;42.70;;;;;;1514254;76;750;-57
2023/08/09 00:09:37;;;;;;;;;;;20.60;42.70;;;;;;1517686;76;1121;-56
2023/08/09 00:11:39;;;;;;;;;;;20.60;42.70;;;;;;1520363;76;705;-55
2023/08/09 00:13:41;;;;;;;;;;;20.60;42.80;;;;;;1533526;76;754;-55
2023/08/09 00:15:42;;;;;;;;;;;20.60;42.80;;;;;;1535040;76;767;-57
2023/08/09 00:17:45;;;;;;;;;;;20.60;42.90;;;;;;1520955;76;1934;-55
2023/08/09 00:19:46;;;;;;;;;;;20.60;42.90;;;;;;1521834;76;1133;-55
2023/08/09 00:21:48;;;;;;;;;;;20.60;42.90;;;;;;1522075;76;718;-56
2023/08/09 00:23:50;;;;;;;;;;;20.60;42.90;;;;;;1518403;76;677;-55
2023/08/09 00:25:52;;;;;;;;;;;20.60;42.90;;;;;;1520254;76;778;-56
2023/08/09 00:27:54;;;;;;;;;;;20.60;43.00;;;;;;1525256;76;724;-54
2023/08/09 00:29:56;;;;;;;;;;;20.60;43.10;;;;;;1503806;77;1142;-56
2023/08/09 00:31:58;;;;;;;;;;;20.60;43.10;;;;;;1493002;78;739;-54
2023/08/09 00:34:00;;;;;;;;;;;20.60;43.20;;;;;;1503897;78;674;-57
2023/08/09 00:36:02;;;;;;;;;;;20.60;43.20;;;;;;1503919;78;815;-57
2023/08/09 00:38:03;;;;;;;;;;;20.60;43.20;;;;;;1500678;77;1935;-54
2023/08/09 00:40:11;;;;;;;;;;;20.60;43.20;;;;;;1538004;76;1130;-55
2023/08/09 00:42:09;;;;;;;;;;;20.60;43.20;;;;;;1509812;77;1697;-56
2023/08/09 00:44:11;;;;;;;;;;;20.60;43.20;;;;;;1517696;77;690;-54
2023/08/09 00:46:13;;;;;;;;;;;20.60;43.20;;;;;;1514778;77;860;-55
2023/08/09 00:48:15;;;;;;;;;;;20.60;43.20;;;;;;1511172;77;768;-55
2023/08/09 00:50:17;;;;;;;;;;;20.60;43.20;;;;;;1513154;77;1089;-56
2023/08/09 00:52:19;;;;;;;;;;;20.60;43.40;;;;;;1535251;76;772;-55
2023/08/09 00:54:21;;;;;;;;;;;20.50;43.40;;;;;;1511123;77;720;-56
2023/08/09 00:56:23;;;;;;;;;;;20.50;43.30;;;;;;1500105;77;712;-55
2023/08/09 00:58:25;;;;;;;;;;;20.50;43.40;;;;;;1536808;75;1980;-55
2023/08/09 01:00:27;;;;;;;;;;;20.60;43.40;;;;;;1536817;76;820;-57
2023/08/09 01:02:29;;;;;;;;;;;20.60;43.40;;;;;;1504132;77;863;-56
2023/08/09 01:04:31;;;;;;;;;;;20.50;43.40;;;;;;1517004;77;709;-56
2023/08/09 01:06:41;;;;;;;;;;;20.50;43.40;;;;;;1511010;77;803;-55
2023/08/09 01:08:44;;;;;;;;;;;20.50;43.40;;;;;;1513063;77;1172;-54
2023/08/09 01:10:50;;;;;;;;;;;20.60;43.40;;;;;;1535489;76;1648;-56
2023/08/09 01:13:00;;;;;;;;;;;20.60;43.40;;;;;;1530338;76;2093;-57
2023/08/09 01:15:02;;;;;;;;;;;20.50;43.50;;;;;;1530427;76;1313;-54
2023/08/09 01:17:04;;;;;;;;;;;20.50;43.50;;;;;;1506379;77;1930;-57
2023/08/09 01:19:08;;;;;;;;;;;20.50;43.60;;;;;;1513933;77;1170;-57
2023/08/09 01:21:10;;;;;;;;;;;20.50;43.60;;;;;;1508734;77;682;-55
2023/08/09 01:23:13;;;;;;;;;;;20.60;43.60;;;;;;1546251;76;736;-54
2023/08/09 01:25:15;;;;;;;;;;;20.50;43.60;;;;;;1522766;76;1962;-55
2023/08/09 01:27:17;;;;;;;;;;;20.50;43.60;;;;;;1522877;76;664;-57
2023/08/09 01:29:19;;;;;;;;;;;20.50;43.60;;;;;;1527327;76;1140;-58
2023/08/09 01:31:21;;;;;;;;;;;20.60;43.60;;;;;;1533695;76;663;-57
2023/08/09 01:33:23;;;;;;;;;;;20.50;43.60;;;;;;1532579;76;744;-56
2023/08/09 01:35:25;;;;;;;;;;;20.50;43.70;;;;;;1527853;76;667;-58
2023/08/09 01:37:29;;;;;;;;;;;20.50;43.70;;;;;;1510925;77;1949;-54
2023/08/09 01:39:31;;;;;;;;;;;20.50;43.80;;;;;;1504520;77;1132;-57
2023/08/09 01:41:34;;;;;;;;;;;20.50;43.90;;;;;;1537893;76;744;-57
2023/08/09 01:43:37;;;;;;;;;;;20.60;44.10;;;;;;1537461;76;657;-58
2023/08/09 01:45:39;;;;;;;;;;;20.50;44.20;;;;;;1502924;77;767;-56
2023/08/09 01:47:41;;;;;;;;;;;21.20;44.70;;;;;;1499297;77;783;-57
2023/08/09 01:49:47;;;;;;;;;;;20.50;44.50;;;;;;1505678;77;1141;-58
2023/08/09 01:51:49;;;;;;;;;;;20.50;44.70;;;;;;1500636;77;754;-55
2023/08/09 01:53:51;;;;;;;;;;;20.50;44.70;;;;;;1509425;78;819;-57
2023/08/09 01:55:53;;;;;;;;;;;20.50;44.70;;;;;;1502711;78;1490;-57
2023/08/09 01:57:55;;;;;;;;;;;20.50;44.80;;;;;;1511882;78;1941;-57
2023/08/09 01:59:57;;;;;;;;;;;20.50;45.00;;;;;;1501038;77;1149;-55
2023/08/09 02:01:59;;;;;;;;;;;20.50;45.10;;;;;;1494583;77;784;-55
2023/08/09 02:04:00;;;;;;;;;;;20.40;45.00;;;;;;1514632;77;721;-55
2023/08/09 02:06:02;;;;;;;;;;;20.50;45.20;;;;;;1494632;77;738;-57
2023/08/09 02:08:05;;;;;;;;;;;20.40;45.00;;;;;;1494811;77;762;-57
2023/08/09 02:10:07;;;;;;;;;;;20.40;45.00;;;;;;1508664;77;1122;-57
2023/08/09 02:12:10;;;;;;;;;;;20.40;45.00;;;;;;1496184;77;785;-56
2023/08/09 02:14:12;;;;;;;;;;;20.40;45.10;;;;;;1499731;77;769;-54
2023/08/09 02:16:14;;;;;;;;;;;20.40;45.20;;;;;;1499815;77;768;-53
2023/08/09 02:18:16;;;;;;;;;;;20.50;45.20;;;;;;1510717;78;1926;-56
2023/08/09 02:20:19;;;;;;;;;;;20.40;45.30;;;;;;1499093;78;1017;-56
2023/08/09 02:22:21;;;;;;;;;;;20.50;45.40;;;;;;1509558;77;717;-57
2023/08/09 02:24:23;;;;;;;;;;;20.40;45.30;;;;;;1502189;78;783;-56
2023/08/09 02:26:26;;;;;;;;;;;20.40;45.20;;;;;;1497050;78;763;-55
2023/08/09 02:28:29;;;;;;;;;;;20.40;45.40;;;;;;1496745;77;1148;-55
2023/08/09 02:30:31;;;;;;;;;;;20.40;45.30;;;;;;1501262;77;740;-54
2023/08/09 02:32:34;;;;;;;;;;;20.40;45.40;;;;;;1490085;78;814;-55
2023/08/09 02:34:36;;;;;;;;;;;20.40;45.30;;;;;;1501978;78;748;-56
2023/08/09 02:36:38;;;;;;;;;;;20.40;45.30;;;;;;1495627;78;682;-57
2023/08/09 02:38:40;;;;;;;;;;;20.40;45.30;;;;;;1492100;78;1941;-57
2023/08/09 02:40:42;;;;;;;;;;;20.50;45.40;;;;;;1511108;77;660;-55
2023/08/09 02:42:44;;;;;;;;;;;20.40;45.20;;;;;;1494044;78;741;-56
2023/08/09 02:44:46;;;;;;;;;;;20.50;45.40;;;;;;1499084;78;783;-55
2023/08/09 02:46:47;;;;;;;;;;;21.00;45.60;;;;;;1503934;78;690;-58
2023/08/09 02:48:49;;;;;;;;;;;20.50;45.30;;;;;;1502915;77;1143;-54
2023/08/09 02:50:51;;;;;;;;;;;20.40;45.20;;;;;;1503235;77;746;-56
2023/08/09 02:52:53;;;;;;;;;;;20.50;45.30;;;;;;1489859;78;2736;-56
2023/08/09 02:54:55;;;;;;;;;;;20.40;45.20;;;;;;1498290;77;798;-56
2023/08/09 02:56:57;;;;;;;;;;;20.50;45.20;;;;;;1505322;78;683;-54
2023/08/09 02:58:59;;;;;;;;;;;20.50;45.20;;;;;;1495502;78;1936;-57
2023/08/09 03:01:03;;;;;;;;;;;20.50;45.20;;;;;;1498015;77;633;-56
2023/08/09 03:03:05;;;;;;;;;;;20.50;45.20;;;;;;1499568;78;676;-56
2023/08/09 03:05:08;;;;;;;;;;;20.50;45.20;;;;;;1505390;77;736;-55
2023/08/09 03:07:10;;;;;;;;;;;20.50;45.10;;;;;;1501471;78;696;-56
2023/08/09 03:09:12;;;;;;;;;;;20.50;45.20;;;;;;1503885;77;1098;-56
2023/08/09 03:11:14;;;;;;;;;;;20.50;45.20;;;;;;1503367;78;750;-55
2023/08/09 03:13:16;;;;;;;;;;;20.50;45.20;;;;;;1493669;78;773;-54
2023/08/09 03:15:18;;;;;;;;;;;20.50;45.30;;;;;;1482143;78;752;-54
2023/08/09 03:17:19;;;;;;;;;;;20.50;45.30;;;;;;1503257;78;1926;-56
2023/08/09 03:19:21;;;;;;;;;;;20.40;45.20;;;;;;1509525;77;1147;-58
2023/08/09 03:21:23;;;;;;;;;;;20.50;45.40;;;;;;1492848;77;812;-56
2023/08/09 03:23:25;;;;;;;;;;;20.40;45.20;;;;;;1500665;78;773;-57
2023/08/09 03:25:27;;;;;;;;;;;20.40;45.30;;;;;;1495016;78;653;-55
2023/08/09 03:27:29;;;;;;;;;;;20.40;45.20;;;;;;1499393;78;779;-56
2023/08/09 03:29:31;;;;;;;;;;;20.50;45.40;;;;;;1513848;77;1108;-54
2023/08/09 03:31:33;;;;;;;;;;;21.10;45.70;;;;;;1498485;77;747;-57
2023/08/09 03:33:35;;;;;;;;;;;20.40;45.20;;;;;;1501182;77;802;-57
2023/08/09 03:35:37;;;;;;;;;;;20.40;45.40;;;;;;1504622;78;766;-56
2023/08/09 03:37:39;;;;;;;;;;;20.40;45.40;;;;;;1507170;78;1949;-57
2023/08/09 03:39:41;;;;;;;;;;;20.50;45.50;;;;;;1496799;77;1144;-57
2023/08/09 03:41:43;;;;;;;;;;;20.40;45.50;;;;;;1498230;78;797;-56
2023/08/09 03:43:45;;;;;;;;;;;20.40;45.50;;;;;;1510688;78;766;-55
2023/08/09 03:45:47;;;;;;;;;;;20.40;45.60;;;;;;1500852;78;773;-54
2023/08/09 03:47:49;;;;;;;;;;;20.40;45.60;;;;;;1512973;77;1347;-55
2023/08/09 03:49:51;;;;;;;;;;;20.40;45.70;;;;;;1503297;77;1140;-55
2023/08/09 03:51:53;;;;;;;;;;;20.40;45.70;;;;;;1498295;77;794;-55
2023/08/09 03:53:54;;;;;;;;;;;20.40;45.80;;;;;;1504207;78;819;-58
2023/08/09 03:55:56;;;;;;;;;;;20.40;45.70;;;;;;1514305;78;801;-55
2023/08/09 03:57:58;;;;;;;;;;;20.40;45.80;;;;;;1492533;78;1938;-56
2023/08/09 04:00:02;;;;;;;;;;;20.30;45.70;;;;;;1486061;77;1166;-57
2023/08/09 04:02:04;;;;;;;;;;;20.40;45.60;;;;;;1503565;77;1629;-54
2023/08/09 04:04:07;;;;;;;;;;;20.40;45.50;;;;;;1500383;78;718;-54
2023/08/09 04:06:09;;;;;;;;;;;20.30;45.70;;;;;;1488846;78;790;-58
2023/08/09 04:08:11;;;;;;;;;;;20.40;45.70;;;;;;1492154;77;784;-56
2023/08/09 04:10:13;;;;;;;;;;;20.40;45.60;;;;;;1495624;77;1185;-56
2023/08/09 04:12:15;;;;;;;;;;;20.40;45.60;;;;;;1507975;78;672;-57
2023/08/09 04:14:17;;;;;;;;;;;20.40;45.60;;;;;;1491321;78;702;-55
2023/08/09 04:16:19;;;;;;;;;;;20.40;45.60;;;;;;1497907;78;801;-57
2023/08/09 04:18:21;;;;;;;;;;;20.40;45.60;;;;;;1495635;77;1950;-54
2023/08/09 04:20:23;;;;;;;;;;;20.40;45.50;;;;;;1495176;78;731;-53
2023/08/09 04:22:25;;;;;;;;;;;20.40;45.50;;;;;;1494373;77;776;-55
2023/08/09 04:24:27;;;;;;;;;;;20.40;45.60;;;;;;1486176;78;777;-54
2023/08/09 04:26:29;;;;;;;;;;;20.40;45.60;;;;;;1508343;78;764;-55
2023/08/09 04:28:32;;;;;;;;;;;20.40;45.50;;;;;;1488961;78;1151;-55
2023/08/09 04:30:35;;;;;;;;;;;20.40;45.60;;;;;;1492873;77;824;-53
2023/08/09 04:32:38;;;;;;;;;;;20.50;45.60;;;;;;1502425;77;774;-57
2023/08/09 04:34:40;;;;;;;;;;;20.50;45.70;;;;;;1494892;78;731;-54
2023/08/09 04:36:42;;;;;;;;;;;20.50;45.70;;;;;;1498113;78;766;-56
2023/08/09 04:38:44;;;;;;;;;;;20.50;45.70;;;;;;1488348;78;1931;-56
2023/08/09 04:40:47;;;;;;;;;;;20.40;45.50;;;;;;1500785;77;741;-57
2023/08/09 04:42:49;;;;;;;;;;;20.40;45.50;;;;;;1504764;78;737;-55
2023/08/09 04:44:51;;;;;;;;;;;20.50;45.60;;;;;;1508408;78;1429;-53
2023/08/09 04:46:53;;;;;;;;;;;20.50;45.50;;;;;;1508184;77;672;-56
2023/08/09 04:48:56;;;;;;;;;;;20.50;45.50;;;;;;1494473;77;1137;-53
2023/08/09 04:50:58;;;;;;;;;;;20.50;45.60;;;;;;1499872;77;738;-57
2023/08/09 04:53:00;;;;;;;;;;;20.50;45.60;;;;;;1491162;78;748;-55
2023/08/09 04:55:03;;;;;;;;;;;20.50;45.60;;;;;;1495226;78;818;-56
2023/08/09 04:57:05;;;;;;;;;;;20.50;45.80;;;;;;1491090;78;698;-57
2023/08/09 04:59:06;;;;;;;;;;;20.50;45.70;;;;;;1497966;77;1943;-53
2023/08/09 05:01:08;;;;;;;;;;;20.60;45.90;;;;;;1505728;77;644;-55
2023/08/09 05:03:11;;;;;;;;;;;20.50;45.90;;;;;;1496772;78;909;-54
2023/08/09 05:05:13;;;;;;;;;;;20.50;45.90;;;;;;1489557;78;809;-57
2023/08/09 05:07:15;;;;;;;;;;;20.50;46.10;;;;;;1496061;77;766;-54
2023/08/09 05:09:17;;;;;;;;;;;20.50;46.10;;;;;;1504167;78;1130;-55
2023/08/09 05:11:19;;;;;;;;;;;20.50;46.00;;;;;;1505405;78;714;-57
2023/08/09 05:13:20;;;;;;;;;;;20.50;46.10;;;;;;1497734;78;793;-57
2023/08/09 05:15:22;;;;;;;;;;;20.50;46.30;;;;;;1498429;78;808;-57
2023/08/09 05:17:24;;;;;;;;;;;20.40;46.20;;;;;;1505219;77;822;-54
2023/08/09 05:19:26;;;;;;;;;;;20.50;46.40;;;;;;1503264;78;1945;-57
2023/08/09 05:21:28;;;;;;;;;;;20.50;46.50;;;;;;1508293;77;799;-55
2023/08/09 05:23:30;;;;;;;;;;;20.50;46.60;;;;;;1493740;78;957;-55
2023/08/09 05:25:32;;;;;;;;;;;21.00;47.00;;;;;;1507558;78;762;-54
2023/08/09 05:27:34;;;;;;;;;;;20.50;47.00;;;;;;1505589;78;748;-57
2023/08/09 05:29:36;;;;;;;;;;;20.50;46.80;;;;;;1510807;77;1159;-56
2023/08/09 05:31:38;;;;;;;;;;;20.50;47.10;;;;;;1496831;77;778;-56
2023/08/09 05:33:40;;;;;;;;;;;20.50;47.10;;;;;;1495016;78;784;-56
2023/08/09 05:35:41;;;;;;;;;;;20.50;47.10;;;;;;1504300;78;749;-57
2023/08/09 05:37:43;;;;;;;;;;;20.50;47.20;;;;;;1499351;78;720;-57
2023/08/09 05:39:45;;;;;;;;;;;20.50;47.30;;;;;;1503614;77;1911;-54
2023/08/09 05:41:47;;;;;;;;;;;20.60;47.30;;;;;;1503641;78;726;-54
2023/08/09 05:43:49;;;;;;;;;;;20.50;47.40;;;;;;1514628;78;812;-54
2023/08/09 05:45:51;;;;;;;;;;;20.50;47.60;;;;;;1496001;78;713;-56
2023/08/09 05:47:53;;;;;;;;;;;20.50;47.60;;;;;;1500819;77;610;-56
2023/08/09 05:49:54;;;;;;;;;;;20.50;47.70;;;;;;1499184;77;1177;-54
2023/08/09 05:51:56;;;;;;;;;;;20.50;47.70;;;;;;1488780;77;758;-55
2023/08/09 05:53:58;;;;;;;;;;;20.50;47.70;;;;;;1495464;78;662;-55
2023/08/09 05:56:00;;;;;;;;;;;20.50;47.60;;;;;;1511081;78;812;-55
2023/08/09 05:58:03;;;;;;;;;;;20.60;47.80;;;;;;1499972;78;684;-54
2023/08/09 06:00:06;;;;;;;;;;;20.60;47.80;;;;;;1501262;77;1914;-53
2023/08/09 06:02:08;;;;;;;;;;;20.50;48.10;;;;;;1507981;77;724;-57
2023/08/09 06:04:10;;;;;;;;;;;20.50;48.10;;;;;;1500834;78;786;-54
2023/08/09 06:06:12;;;;;;;;;;;20.50;48.20;;;;;;1508856;78;947;-56
2023/08/09 06:08:14;;;;;;;;;;;20.60;48.20;;;;;;1500113;78;738;-56
2023/08/09 06:10:15;;;;;;;;;;;20.50;48.10;;;;;;1504297;77;1094;-56
2023/08/09 06:12:17;;;;;;;;;;;20.50;48.20;;;;;;1498933;78;789;-56
2023/08/09 06:14:19;;;;;;;;;;;20.50;48.30;;;;;;1499213;77;737;-56
2023/08/09 06:16:21;;;;;;;;;;;20.50;48.30;;;;;;1502205;78;811;-56
2023/08/09 06:18:23;;;;;;;;;;;20.50;48.40;;;;;;1506132;78;1148;-54
2023/08/09 06:20:27;;;;;;;;;;;20.50;48.30;;;;;;1493519;77;1942;-56
2023/08/09 06:22:28;;;;;;;;;;;20.60;48.50;;;;;;1492978;77;1696;-54
2023/08/09 06:24:30;;;;;;;;;;;20.50;48.50;;;;;;1500548;78;807;-55
2023/08/09 06:26:32;;;;;;;;;;;20.50;48.50;;;;;;1513219;78;743;-56
2023/08/09 06:28:35;;;;;;;;;;;20.50;48.40;;;;;;1501312;77;1124;-55
2023/08/09 06:30:37;;;;;;;;;;;20.50;48.30;;;;;;1499711;77;805;-55
2023/08/09 06:32:39;;;;;;;;;;;20.60;48.40;;;;;;1506004;78;804;-55
2023/08/09 06:34:40;;;;;;;;;;;20.60;48.40;;;;;;1495215;78;763;-56
2023/08/09 06:36:42;;;;;;;;;;;20.60;48.50;;;;;;1511068;78;1517;-57
2023/08/09 06:38:44;;;;;;;;;;;20.50;48.60;;;;;;1510671;77;1949;-55
2023/08/09 06:40:46;;;;;;;;;;;20.50;48.60;;;;;;1498341;77;690;-56
2023/08/09 06:42:48;;;;;;;;;;;20.60;48.70;;;;;;1508420;77;713;-55
2023/08/09 06:44:50;;;;;;;;;;;20.50;48.70;;;;;;1500128;78;768;-54
2023/08/09 06:46:53;;;;;;;;;;;20.50;48.60;;;;;;1500943;78;793;-55
2023/08/09 06:48:55;;;;;;;;;;;20.50;48.90;;;;;;1513364;77;1152;-55
2023/08/09 06:50:57;;;;;;;;;;;20.50;48.90;;;;;;1499031;77;838;-55
2023/08/09 06:52:59;;;;;;;;;;;20.50;48.80;;;;;;1494840;78;731;-57
2023/08/09 06:55:01;;;;;;;;;;;20.60;48.90;;;;;;1504518;77;718;-56
2023/08/09 06:57:03;;;;;;;;;;;20.60;48.70;;;;;;1515808;77;784;-54
2023/08/09 06:59:05;;;;;;;;;;;20.60;48.90;;;;;;1500876;77;1952;-54
2023/08/09 07:01:09;;;;;;;;;;;20.60;49.00;;;;;;1501373;78;842;-57
2023/08/09 07:03:10;;;;;;;;;;;20.60;49.00;;;;;;1486588;78;805;-56
2023/08/09 07:05:18;;;;;;;;;;;20.50;49.00;;;;;;1501420;78;756;-55
2023/08/09 07:07:19;;;;;;;;;;;20.50;49.00;;;;;;1509808;77;1504;-57
2023/08/09 07:09:20;;;;;;;;;;;20.50;48.90;;;;;;1497143;78;1149;-54
2023/08/09 07:11:22;;;;;;;;;;;20.50;48.80;;;;;;1500015;78;785;-56
2023/08/09 07:13:25;;;;;;;;;;;20.60;48.80;;;;;;1501878;77;688;-57
2023/08/09 07:15:27;;;;;;;;;;;20.60;48.70;;;;;;1504742;78;697;-56
2023/08/09 07:17:29;;;;;;;;;;;20.60;48.90;;;;;;1504750;77;669;-55
2023/08/09 07:19:31;;;;;;;;;;;20.50;48.90;;;;;;1498751;78;1952;-56
2023/08/09 07:21:33;;;;;;;;;;;20.50;48.90;;;;;;1504389;77;728;-54
2023/08/09 07:23:34;;;;;;;;;;;20.50;49.00;;;;;;1504330;78;766;-55
2023/08/09 07:25:36;;;;;;;;;;;20.50;49.10;;;;;;1492574;78;787;-55
2023/08/09 07:27:42;;;;;;;;;;;20.50;49.30;;;;;;1502514;77;773;-56
2023/08/09 07:29:44;;;;;;;;;;;20.50;49.30;;;;;;1500255;77;1242;-56
2023/08/09 07:31:45;;;;;;;;;;;20.60;49.20;;;;;;1499999;78;669;-56
2023/08/09 07:33:48;;;;;;;;;;;20.50;49.10;;;;;;1504165;78;1509;-54
2023/08/09 07:35:49;;;;;;;;;;;20.60;49.40;;;;;;1500878;78;758;-56
2023/08/09 07:37:51;;;;;;;;;;;20.50;49.50;;;;;;1500159;77;793;-57
2023/08/09 07:39:53;;;;;;;;;;;20.60;49.40;;;;;;1499569;77;1954;-53
2023/08/09 07:41:55;;;;;;;;;;;20.60;49.40;;;;;;1510645;77;736;-57
2023/08/09 07:43:57;;;;;;;;;;;20.60;49.60;;;;;;1509780;78;736;-55
2023/08/09 07:45:59;;;;;;;;;;;20.60;49.60;;;;;;1498963;77;743;-54
2023/08/09 07:48:01;;;;;;;;;;;20.60;49.80;;;;;;1489716;77;797;-54
2023/08/09 07:50:03;;;;;;;;;;;20.50;50.20;;;;;;1493629;78;1152;-55
2023/08/09 07:52:05;;;;;;;;;;;20.60;50.20;;;;;;1488197;77;752;-56
2023/08/09 07:54:06;;;;;;;;;;;20.60;50.20;;;;;;1507613;78;731;-57
2023/08/09 07:56:09;;;;;;;;;;;20.60;50.30;;;;;;1507276;77;773;-54
2023/08/09 07:58:11;;;;;;;;;;;20.60;50.20;;;;;;1499261;78;780;-57
2023/08/09 08:00:14;;;;;;;;;;;20.50;50.20;;;;;;1489698;77;1950;-57
2023/08/09 08:02:16;;;;;;;;;;;20.50;50.20;;;;;;1502222;78;716;-54
2023/08/09 08:04:18;;;;;;;;;;;20.60;50.20;;;;;;1497286;78;873;-57
2023/08/09 08:06:20;;;;;;;;;;;20.50;50.30;;;;;;1505735;78;806;-53
2023/08/09 08:08:22;;;;;;;;;;;20.60;50.20;;;;;;1499249;77;1103;-54
2023/08/09 08:10:24;;;;;;;;;;;20.50;50.40;;;;;;1500491;77;777;-56
2023/08/09 08:12:28;;;;;;;;;;;20.50;50.40;;;;;;1500830;78;808;-56
2023/08/09 08:14:29;;;;;;;;;;;20.50;50.50;;;;;;1503177;78;1630;-56
2023/08/09 08:16:31;;;;;;;;;;;20.50;50.50;;;;;;1511329;77;754;-55
2023/08/09 08:18:33;;;;;;;;;;;20.50;50.50;;;;;;1508367;78;1152;-54
2023/08/09 08:20:35;;;;;;;;;;;20.50;50.70;;;;;;1492921;78;1954;-53
2023/08/09 08:22:37;;;;;;;;;;;20.50;50.40;;;;;;1490490;77;730;-55
2023/08/09 08:24:39;;;;;;;;;;;20.60;50.60;;;;;;1496520;77;803;-57
2023/08/09 08:26:41;;;;;;;;;;;20.60;50.50;;;;;;1499562;78;969;-57
2023/08/09 08:28:43;;;;;;;;;;;20.60;50.60;;;;;;1497904;76;1601;-56
2023/08/09 08:30:45;;;;;;;;;;;20.60;50.80;;;;;;1512216;78;737;-57
2023/08/09 08:32:47;;;;;;;;;;;20.60;50.80;;;;;;1505004;78;809;-55
2023/08/09 08:34:50;;;;;;;;;;;20.60;50.80;;;;;;1505507;78;789;-57
2023/08/09 08:36:51;;;;;;;;;;;20.60;50.70;;;;;;1506606;77;816;-55
2023/08/09 08:38:53;;;;;;;;;;;20.60;50.80;;;;;;1497613;78;1147;-56
2023/08/09 08:40:55;;;;;;;;;;;20.60;50.90;;;;;;1491333;78;1935;-56
2023/08/09 08:42:58;;;;;;;;;;;20.60;50.90;;;;;;1490086;78;692;-55
2023/08/09 08:45:03;;;;;;;;;;;20.60;50.70;;;;;;1505913;77;607;-56
2023/08/09 08:47:04;;;;;;;;;;;20.60;50.90;;;;;;1509671;78;1766;-56
2023/08/09 08:49:05;;;;;;;;;;;20.60;51.00;;;;;;1505986;77;1175;-56
2023/08/09 08:51:07;;;;;;;;;;;20.60;51.00;;;;;;1510476;77;744;-55
2023/08/09 08:53:10;;;;;;;;;;;20.60;51.00;;;;;;1509519;78;738;-53
2023/08/09 08:55:12;;;;;;;;;;;20.60;51.00;;;;;;1508383;77;754;-55
2023/08/09 08:57:14;;;;;;;;;;;20.70;51.00;;;;;;1504064;78;752;-55
2023/08/09 08:59:16;;;;;;;;;;;20.70;51.00;;;;;;1495474;77;1124;-57
2023/08/09 09:01:23;;;;;;;;;;;20.60;50.80;;;;;;1488993;78;1926;-57
2023/08/09 09:03:22;;;;;;;;;;;20.60;51.20;;;;;;1499721;78;1679;-55
2023/08/09 09:05:24;;;;;;;;;;;20.60;50.90;;;;;;1499466;78;737;-57
2023/08/09 09:07:25;;;;;;;;;;;20.60;50.80;;;;;;1497832;78;732;-56
2023/08/09 09:09:27;;;;;;;;;;;20.60;51.10;;;;;;1495153;78;1123;-53
2023/08/09 09:11:29;;;;;;;;;;;20.60;50.90;;;;;;1496929;78;759;-54
2023/08/09 09:13:31;;;;;;;;;;;20.70;51.00;;;;;;1508522;78;666;-55
2023/08/09 09:15:34;;;;;;;;;;;20.70;50.90;;;;;;1506575;78;733;-54
2023/08/09 09:17:39;;;;;;;;;;;20.70;51.00;;;;;;1502641;76;861;-55
2023/08/09 09:19:41;;;;;;;;;;;20.70;50.70;;;;;;1498746;78;1943;-57
2023/08/09 09:21:42;;;;;;;;;;;20.60;51.00;;;;;;1470253;78;1223;-55
2023/08/09 09:23:44;;;;;;;;;;;20.70;51.20;;;;;;1534215;76;885;-56
2023/08/09 09:25:46;;;;;;;;;;;20.60;51.10;;;;;;1537740;76;1480;-55
2023/08/09 09:27:54;;;;;;;;;;;20.60;51.20;;;;;;1506256;77;775;-54
2023/08/09 09:29:52;;;;;;;;;;;20.60;51.20;;;;;;1497175;77;1632;-55
2023/08/09 09:31:54;;;;;;;;;;;20.60;51.00;;;;;;1508809;77;696;-54
2023/08/09 09:33:56;;;;;;;;;;;20.70;51.10;;;;;;1508877;77;1207;-55
2023/08/09 09:35:58;;;;;;;;;;;20.60;51.00;;;;;;1572218;74;743;-55
2023/08/09 09:38:01;;;;;;;;;;;20.70;51.00;;;;;;1560540;74;710;-55
2023/08/09 09:40:03;;;;;;;;;;;20.70;51.10;;;;;;1554814;74;1928;-55
2023/08/09 09:42:05;;;;;;;;;;;20.70;51.30;;;;;;1570622;74;806;-56
2023/08/09 09:44:07;;;;;;;;;;;20.70;51.30;;;;;;1564119;74;734;-56
2023/08/09 09:46:21;;;;;;;;;;;20.70;51.30;;;;;;1560956;74;695;-56
2023/08/09 09:48:23;;;;;;;;;;;20.70;51.70;;;;;;1568993;74;1142;-54
2023/08/09 09:50:28;;;;;;;;;;;20.60;51.60;;;;;;1579461;74;732;-56
2023/08/09 09:52:31;;;;;;;;;;;20.70;52.00;;;;;;1551331;74;819;-56
2023/08/09 09:54:33;;;;;;;;;;;20.70;51.70;;;;;;1562283;74;799;-55
2023/08/09 09:56:35;;;;;;;;;;;20.70;51.80;;;;;;1570253;74;1103;-56
2023/08/09 09:58:37;;;;;;;;;;;20.70;51.90;;;;;;1554988;74;1238;-54
2023/08/09 10:00:41;;;;;;;;;;;20.70;51.70;;;;;;1567244;74;1916;-56
2023/08/09 10:02:47;;;;;;;;;;;20.70;52.20;;;;;;1563880;74;1979;-56
2023/08/09 10:04:49;;;;;;;;;;;20.70;51.90;;;;;;1563314;74;754;-54
2023/08/09 10:06:51;;;;;;;;;;;20.70;51.80;;;;;;1566734;74;739;-55
2023/08/09 10:08:53;;;;;;;;;;;20.70;52.10;;;;;;1558896;74;1107;-56
2023/08/09 10:10:55;;;;;;;;;;;20.60;52.10;;;;;;1568323;74;816;-55
2023/08/09 10:12:57;;;;;;;;;;;20.70;52.30;;;;;;1566592;74;687;-57
2023/08/09 10:14:58;;;;;;;;;;;20.70;52.50;;;;;;1567489;74;735;-55
2023/08/09 10:17:00;;;;;;;;;;;20.70;52.60;;;;;;1567180;74;746;-55
2023/08/09 10:19:13;;;;;;;;;;;20.70;52.30;;;;;;1575466;73;1133;-56
2023/08/09 10:21:15;;;;;;;;;;;20.60;52.60;;;;;;1557326;74;1954;-56
2023/08/09 10:23:20;;;;;;;;;;;20.70;52.30;;;;;;1560570;74;835;-57
2023/08/09 10:25:40;;;;;;;;;;;20.70;52.40;;;;;;1557452;74;706;-55
2023/08/09 10:27:53;;;;;;;;;;;20.70;52.30;;;;;;1567669;74;771;-55
2023/08/09 10:29:58;;;;;;;;;;;20.70;52.30;;;;;;1564969;74;1119;-55
2023/08/09 10:32:02;;;;;;;;;;;20.70;52.50;;;;;;1559556;74;684;-56
2023/08/09 10:34:08;;;;;;;;;;;20.70;52.60;;;;;;1560877;74;2040;-57
2023/08/09 10:36:13;;;;;;;;;;;20.80;52.80;;;;;;1562544;74;770;-58
2023/08/09 10:38:16;;;;;;;;;;;20.70;52.60;;;;;;1560620;74;1605;-56
2023/08/09 10:40:21;;;;;;;;;;;20.80;52.50;;;;;;1562698;74;1955;-55
2023/08/09 10:42:21;;;;;;;;;;;20.70;52.90;;;;;;1564789;74;1748;-58
2023/08/09 10:44:33;;;;;;;;;;;20.70;53.00;;;;;;1568112;74;828;-57
2023/08/09 10:46:35;;;;;;;;;;;20.70;53.00;;;;;;1567415;74;708;-55
2023/08/09 10:48:37;;;;;;;;;;;20.70;53.20;;;;;;1568907;74;1147;-53
2023/08/09 10:50:39;;;;;;;;;;;20.80;54.20;;;;;;1572191;74;1134;-56
2023/08/09 10:52:41;;;;;;;;;;;20.80;53.60;;;;;;1561664;74;774;-54
2023/08/09 10:54:43;;;;;;;;;;;20.80;54.40;;;;;;1566009;74;775;-54
2023/08/09 10:56:45;;;;;;;;;;;20.90;53.70;;;;;;1567408;74;741;-55
2023/08/09 10:58:47;;;;;;;;;;;20.80;53.30;;;;;;1564932;74;1160;-55
2023/08/09 11:00:49;;;;;;;;;;;20.90;53.40;;;;;;1570369;74;1931;-53
2023/08/09 11:02:51;;;;;;;;;;;20.80;52.70;;;;;;1567600;74;799;-54
2023/08/09 11:04:53;;;;;;;;;;;20.90;53.00;;;;;;1562326;74;745;-55
2023/08/09 11:06:55;;;;;;;;;;;20.90;53.30;;;;;;1560094;74;781;-54
2023/08/09 11:08:59;;;;;;;;;;;20.90;53.20;;;;;;1564957;74;1124;-54
2023/08/09 11:11:01;;;;;;;;;;;21.00;54.00;;;;;;1568800;74;1735;-56
2023/08/09 11:13:04;;;;;;;;;;;20.80;53.10;;;;;;1565592;74;989;-57
2023/08/09 11:15:07;;;;;;;;;;;20.90;53.10;;;;;;1570922;74;693;-54
2023/08/09 11:17:10;;;;;;;;;;;20.90;53.00;;;;;;1560782;74;761;-53
2023/08/09 11:19:16;;;;;;;;;;;21.00;52.90;;;;;;1570566;73;1943;-57
2023/08/09 11:21:18;;;;;;;;;;;20.90;52.70;;;;;;1562648;74;1916;-56
2023/08/09 11:23:20;;;;;;;;;;;20.90;52.60;;;;;;1566866;74;752;-56
2023/08/09 11:25:23;;;;;;;;;;;20.90;52.50;;;;;;1562979;74;796;-55
2023/08/09 11:27:24;;;;;;;;;;;20.90;52.20;;;;;;1566188;74;653;-56
2023/08/09 11:29:27;;;;;;;;;;;21.00;52.30;;;;;;1572482;74;1128;-56
2023/08/09 11:31:30;;;;;;;;;;;21.00;52.30;;;;;;1569569;74;704;-54
2023/08/09 11:33:32;;;;;;;;;;;21.00;52.20;;;;;;1549388;74;799;-55
2023/08/09 11:35:39;;;;;;;;;;;21.00;52.00;;;;;;1566744;74;662;-55
2023/08/09 11:37:38;;;;;;;;;;;21.00;52.40;;;;;;1568082;74;1606;-55
2023/08/09 11:39:40;;;;;;;;;;;21.00;51.90;;;;;;1568012;74;1095;-55
2023/08/09 11:41:43;;;;;;;;;;;21.00;52.10;;;;;;1566702;74;1931;-54
2023/08/09 11:43:46;;;;;;;;;;;21.00;51.50;;;;;;1571935;74;754;-56
2023/08/09 11:45:54;;;;;;;;;;;21.00;51.10;;;;;;1574558;74;765;-55
2023/08/09 11:47:56;;;;;;;;;;;21.00;51.00;;;;;;1565238;74;715;-56
2023/08/09 11:49:58;;;;;;;;;;;21.00;51.10;;;;;;1572327;73;1130;-56
2023/08/09 11:52:02;;;;;;;;;;;20.90;51.00;;;;;;1568366;74;673;-54
2023/08/09 11:54:07;;;;;;;;;;;21.00;51.10;;;;;;1566146;74;685;-57
2023/08/09 11:56:10;;;;;;;;;;;21.00;51.20;;;;;;1565524;74;701;-55
2023/08/09 11:58:12;;;;;;;;;;;21.00;51.10;;;;;;1560658;74;1700;-55
2023/08/09 12:00:15;;;;;;;;;;;21.00;51.00;;;;;;1563151;74;1120;-55
2023/08/09 12:02:17;;;;;;;;;;;21.00;51.10;;;;;;1563233;74;1930;-55
2023/08/09 12:04:20;;;;;;;;;;;21.00;51.10;;;;;;1573564;74;720;-55
2023/08/09 12:06:40;;;;;;;;;;;21.00;51.50;;;;;;1557152;74;613;-54
2023/08/09 12:08:42;;;;;;;;;;;21.00;51.30;;;;;;1566323;74;1146;-55
2023/08/09 12:10:44;;;;;;;;;;;21.00;51.10;;;;;;1570595;74;848;-55